createdAt,value
2019-03-22T00:00:07.996Z,50.07
2019-03-22T00:02:37.840Z,52.17
2019-03-22T00:05:07.035Z,50.43
2019-03-22T00:07:36.857Z,49.23
2019-03-22T00:10:06.769Z,48.40
2019-03-22T00:12:35.950Z,51.47
2019-03-22T00:15:06.030Z,51.10
2019-03-22T00:17:35.484Z,48.73
2019-03-22T00:20:05.561Z,45.60
2019-03-22T00:22:34.785Z,47.97
2019-03-22T00:25:03.986Z,51.60
2019-03-22T00:27:33.818Z,47.73
2019-03-22T00:30:03.023Z,44.17
2019-03-22T00:32:32.525Z,44.33
2019-03-22T00:35:02.358Z,42.57
2019-03-22T00:37:31.553Z,44.27
2019-03-22T00:40:00.744Z,36.97
2019-03-22T00:42:30.654Z,38.23
2019-03-22T00:44:59.830Z,34.77
2019-03-22T00:47:29.033Z,41.60
2019-03-22T00:49:58.446Z,39.13
2019-03-22T00:52:27.707Z,34.70
2019-03-22T00:54:57.158Z,36.03
2019-03-22T00:57:28.721Z,36.63
2019-03-22T00:59:57.566Z,38.57
2019-03-22T01:02:27.413Z,37.20
2019-03-22T01:04:57.237Z,35.83
2019-03-22T01:07:26.417Z,39.00
2019-03-22T01:09:56.013Z,35.50
2019-03-22T01:12:25.259Z,35.53
2019-03-22T01:14:55.149Z,35.40
2019-03-22T01:17:24.297Z,35.77
2019-03-22T01:19:54.058Z,36.27
2019-03-22T01:22:23.559Z,34.67
2019-03-22T01:24:53.575Z,37.83
2019-03-22T01:27:22.731Z,36.63
2019-03-22T01:29:52.286Z,35.80
2019-03-22T01:32:21.463Z,40.67
2019-03-22T01:34:51.399Z,54.20
2019-03-22T01:37:20.590Z,58.47
2019-03-22T01:39:49.820Z,61.83
2019-03-22T01:42:19.614Z,60.30
2019-03-22T01:44:48.824Z,63.07
2019-03-22T01:47:18.010Z,62.90
2019-03-22T01:49:47.922Z,67.33
2019-03-22T01:52:17.097Z,65.50
2019-03-22T01:54:46.614Z,60.13
2019-03-22T01:57:16.133Z,65.47
2019-03-22T01:59:45.329Z,59.50
2019-03-22T02:02:14.835Z,54.17
2019-03-22T02:04:44.339Z,66.03
2019-03-22T02:07:13.524Z,55.73
2019-03-22T02:09:43.046Z,66.70
2019-03-22T02:12:12.230Z,64.73
2019-03-22T02:14:41.409Z,62.37
2019-03-22T02:17:10.841Z,70.27
2019-03-22T02:19:40.352Z,59.63
2019-03-22T02:22:09.852Z,53.73
2019-03-22T02:24:39.090Z,64.20
2019-03-22T02:27:08.967Z,61.00
2019-03-22T02:29:38.473Z,60.17
2019-03-22T02:32:07.712Z,63.80
2019-03-22T02:34:37.079Z,58.10
2019-03-22T02:37:06.898Z,65.93
2019-03-22T02:39:36.283Z,71.07
2019-03-22T02:42:05.906Z,76.07
2019-03-22T02:44:35.406Z,66.50
2019-03-22T02:47:04.816Z,68.47
2019-03-22T02:49:34.631Z,78.60
2019-03-22T02:52:03.984Z,74.27
2019-03-22T02:54:33.434Z,70.67
2019-03-22T02:57:02.935Z,82.33
2019-03-22T02:59:32.443Z,73.83
2019-03-22T03:02:01.948Z,73.80
2019-03-22T03:04:32.025Z,71.63
2019-03-22T03:07:01.198Z,67.50
2019-03-22T03:09:30.409Z,64.50
2019-03-22T03:11:59.624Z,71.43
2019-03-22T03:14:28.781Z,66.37
2019-03-22T03:16:58.260Z,71.67
2019-03-22T03:19:27.793Z,62.43
2019-03-22T03:21:56.953Z,70.40
2019-03-22T03:24:26.567Z,79.43
2019-03-22T03:26:55.929Z,76.60
2019-03-22T03:29:25.255Z,83.37
2019-03-22T03:31:54.808Z,86.83
2019-03-22T03:34:24.005Z,92.83
2019-03-22T03:36:53.600Z,86.63
2019-03-22T03:39:22.813Z,79.53
2019-03-22T03:41:51.998Z,67.73
2019-03-22T03:44:21.802Z,76.13
2019-03-22T03:46:50.988Z,76.97
2019-03-22T03:49:20.182Z,79.73
2019-03-22T03:51:49.714Z,76.30
2019-03-22T03:54:19.219Z,71.20
2019-03-22T03:56:48.453Z,75.83
2019-03-22T03:59:17.917Z,79.43
2019-03-22T04:01:47.110Z,77.27
2019-03-22T04:04:16.355Z,69.40
2019-03-22T04:06:45.570Z,80.27
2019-03-22T04:09:14.760Z,67.77
2019-03-22T04:11:44.325Z,63.10
2019-03-22T04:14:13.532Z,61.73
2019-03-22T04:16:42.713Z,49.87
2019-03-22T04:19:12.844Z,53.97
2019-03-22T04:21:42.069Z,56.63
2019-03-22T04:24:11.262Z,53.83
2019-03-22T04:26:40.739Z,46.67
2019-03-22T04:29:09.969Z,56.27
2019-03-22T04:31:39.442Z,49.00
2019-03-22T04:34:08.965Z,48.47
2019-03-22T04:36:38.220Z,43.03
2019-03-22T04:39:08.992Z,37.90
2019-03-22T04:41:38.271Z,37.03
2019-03-22T04:44:07.888Z,38.97
2019-03-22T04:46:37.651Z,35.73
2019-03-22T04:49:07.210Z,35.10
2019-03-22T04:51:36.924Z,30.43
2019-03-22T04:54:07.326Z,34.30
2019-03-22T04:56:38.040Z,32.63
2019-03-22T04:59:18.446Z,36.33
2019-03-22T05:01:42.420Z,35.47
2019-03-22T05:04:12.646Z,33.77
2019-03-22T05:06:43.568Z,39.10
2019-03-22T05:09:14.631Z,34.07
2019-03-22T05:11:44.053Z,33.43
2019-03-22T05:14:14.724Z,36.30
2019-03-22T05:16:46.161Z,30.13
2019-03-22T05:19:16.027Z,30.93
2019-03-22T05:21:45.914Z,33.63
2019-03-22T05:24:18.258Z,27.60
2019-03-22T05:26:48.846Z,27.63
2019-03-22T05:29:29.869Z,29.57
2019-03-22T05:32:08.954Z,28.07
2019-03-22T05:34:38.566Z,27.93
2019-03-22T05:37:08.241Z,25.47
2019-03-22T05:39:37.384Z,29.07
2019-03-22T05:42:07.178Z,26.37
2019-03-22T05:44:36.446Z,24.37
2019-03-22T05:47:06.192Z,28.53
2019-03-22T05:49:36.011Z,23.77
2019-03-22T05:52:05.611Z,23.27
2019-03-22T05:54:35.419Z,21.20
2019-03-22T05:57:13.415Z,23.83
2019-03-22T05:59:42.391Z,19.07
2019-03-22T06:02:07.326Z,24.77
2019-03-22T06:04:36.830Z,22.10
2019-03-22T06:07:09.200Z,22.90
2019-03-22T06:09:39.321Z,28.90
2019-03-22T06:12:08.833Z,25.67
2019-03-22T06:14:38.328Z,21.80
2019-03-22T06:17:07.845Z,30.00
2019-03-22T06:19:37.341Z,22.47
2019-03-22T06:22:06.987Z,22.30
2019-03-22T06:24:36.194Z,27.60
2019-03-22T06:27:06.063Z,24.47
2019-03-22T06:29:35.576Z,20.77
2019-03-22T06:32:05.071Z,27.43
2019-03-22T06:34:34.774Z,24.20
2019-03-22T06:37:04.297Z,20.93
2019-03-22T06:39:34.097Z,19.37
2019-03-22T06:42:03.395Z,18.43
2019-03-22T06:44:33.589Z,20.43
2019-03-22T06:47:02.851Z,17.00
2019-03-22T06:49:32.349Z,14.37
2019-03-22T06:52:01.854Z,17.83
2019-03-22T06:54:32.099Z,17.37
2019-03-22T06:57:02.189Z,12.57
2019-03-22T06:59:31.699Z,16.23
2019-03-22T07:02:01.187Z,11.97
2019-03-22T07:04:30.692Z,14.00
2019-03-22T07:07:00.185Z,12.07
2019-03-22T07:09:29.368Z,10.83
2019-03-22T07:11:58.621Z,11.57
2019-03-22T07:14:27.817Z,11.40
2019-03-22T07:16:58.955Z,8.03
2019-03-22T07:19:28.276Z,10.77
2019-03-22T07:21:57.437Z,9.60
2019-03-22T07:24:26.614Z,6.87
2019-03-22T07:26:56.142Z,7.40
2019-03-22T07:29:25.330Z,6.53
2019-03-22T07:31:54.947Z,7.67
2019-03-22T07:34:24.462Z,6.83
2019-03-22T07:36:53.628Z,5.70
2019-03-22T07:39:23.162Z,5.23
2019-03-22T07:41:52.972Z,5.47
2019-03-22T07:44:22.716Z,5.33
2019-03-22T07:46:52.210Z,3.80
2019-03-22T07:49:21.438Z,4.10
2019-03-22T07:51:50.666Z,3.90
2019-03-22T07:54:19.830Z,3.03
2019-03-22T07:56:49.602Z,2.90
2019-03-22T07:59:19.205Z,2.87
2019-03-22T08:01:48.474Z,3.70
2019-03-22T08:04:18.215Z,3.43
2019-03-22T08:06:48.028Z,4.20
2019-03-22T08:09:17.535Z,4.20
2019-03-22T08:11:47.051Z,6.00
2019-03-22T08:14:16.594Z,5.13
2019-03-22T08:16:46.138Z,5.80
2019-03-22T08:19:15.971Z,4.87
2019-03-22T08:21:45.695Z,4.77
2019-03-22T08:24:14.874Z,5.10
2019-03-22T08:26:44.432Z,5.20
2019-03-22T08:29:13.628Z,4.73
2019-03-22T08:31:43.084Z,6.03
2019-03-22T08:34:12.620Z,7.83
2019-03-22T08:36:42.418Z,4.03
2019-03-22T08:39:11.999Z,6.43
2019-03-22T08:41:41.570Z,5.27
2019-03-22T08:44:10.765Z,5.07
2019-03-22T08:46:40.234Z,6.70
2019-03-22T08:49:10.122Z,6.40
2019-03-22T08:51:39.651Z,7.40
2019-03-22T08:54:09.455Z,8.63
2019-03-22T08:56:38.725Z,7.87
2019-03-22T08:59:08.218Z,6.97
2019-03-22T09:01:37.665Z,8.43
2019-03-22T09:04:06.932Z,8.67
2019-03-22T09:06:36.353Z,8.43
2019-03-22T09:09:08.144Z,9.13
2019-03-22T09:11:37.841Z,8.90
2019-03-22T09:14:07.878Z,9.10
2019-03-22T09:16:37.045Z,8.17
2019-03-22T09:19:06.231Z,8.13
2019-03-22T09:21:35.970Z,8.93
2019-03-22T09:24:05.593Z,7.40
2019-03-22T09:26:47.117Z,7.93
2019-03-22T09:29:05.976Z,11.07
2019-03-22T09:31:35.425Z,10.57
2019-03-22T09:34:04.929Z,9.37
2019-03-22T09:36:34.445Z,10.97
2019-03-22T09:39:04.225Z,8.07
2019-03-22T09:41:33.392Z,8.60
2019-03-22T09:44:02.913Z,10.10
2019-03-22T09:46:32.359Z,7.33
2019-03-22T09:49:02.021Z,6.27
2019-03-22T09:51:31.473Z,5.77
2019-03-22T09:54:00.977Z,4.80
2019-03-22T09:56:30.140Z,6.60
2019-03-22T09:59:00.107Z,7.27
2019-03-22T10:01:29.287Z,4.80
2019-03-22T10:03:58.520Z,4.83
2019-03-22T10:06:28.002Z,6.03
2019-03-22T10:08:57.502Z,8.23
2019-03-22T10:11:27.012Z,7.10
2019-03-22T10:13:56.844Z,7.63
2019-03-22T10:16:25.994Z,6.37
2019-03-22T10:18:55.476Z,9.97
2019-03-22T10:21:24.741Z,9.10
2019-03-22T10:23:54.204Z,6.87
2019-03-22T10:26:24.055Z,10.30
2019-03-22T10:28:53.550Z,8.70
2019-03-22T10:31:27.258Z,9.83
2019-03-22T10:33:53.644Z,7.17
2019-03-22T10:36:22.952Z,9.03
2019-03-22T10:38:52.115Z,7.23
2019-03-22T10:41:21.260Z,7.67
2019-03-22T10:43:50.940Z,7.27
2019-03-22T10:46:20.126Z,7.37
2019-03-22T10:48:49.324Z,7.37
2019-03-22T10:51:21.393Z,8.33
2019-03-22T10:53:49.714Z,8.23
2019-03-22T10:56:18.941Z,7.23
2019-03-22T10:58:48.440Z,9.00
2019-03-22T11:01:17.936Z,8.20
2019-03-22T11:03:47.116Z,10.00
2019-03-22T11:06:25.801Z,8.70
2019-03-22T11:08:47.886Z,7.50
2019-03-22T11:11:17.361Z,9.67
2019-03-22T11:13:46.885Z,7.40
2019-03-22T11:16:16.403Z,10.37
2019-03-22T11:18:45.569Z,8.70
2019-03-22T11:21:15.315Z,8.93
2019-03-22T11:23:45.134Z,9.77
2019-03-22T11:26:14.614Z,12.53
2019-03-22T11:28:44.047Z,9.83
2019-03-22T11:31:14.260Z,12.77
2019-03-22T11:33:43.772Z,11.13
2019-03-22T11:36:12.969Z,11.83
2019-03-22T11:38:42.142Z,12.53
2019-03-22T11:41:11.690Z,11.87
2019-03-22T11:43:40.876Z,11.17
2019-03-22T11:46:10.144Z,10.43
2019-03-22T11:48:39.676Z,12.80
2019-03-22T11:51:09.766Z,12.07
2019-03-22T11:53:39.311Z,13.67
2019-03-22T11:56:09.501Z,10.70
2019-03-22T11:58:39.023Z,12.67
2019-03-22T12:01:08.208Z,13.60
2019-03-22T12:03:37.629Z,11.67
2019-03-22T12:06:07.235Z,11.37
2019-03-22T12:08:36.546Z,12.47
2019-03-22T12:11:05.932Z,12.10
2019-03-22T12:13:35.102Z,11.17
2019-03-22T12:16:04.445Z,11.30
2019-03-22T12:18:34.029Z,10.87
2019-03-22T12:21:03.553Z,12.27
2019-03-22T12:23:33.217Z,10.10
2019-03-22T12:26:02.878Z,11.87
2019-03-22T12:28:32.377Z,12.70
2019-03-22T12:31:01.703Z,11.87
2019-03-22T12:33:31.184Z,12.50
2019-03-22T12:36:00.698Z,12.07
2019-03-22T12:38:30.210Z,11.33
2019-03-22T12:40:59.766Z,12.47
2019-03-22T12:43:28.979Z,13.27
2019-03-22T12:45:58.408Z,13.20
2019-03-22T12:48:27.964Z,12.27
2019-03-22T12:50:57.521Z,13.37
2019-03-22T12:53:27.024Z,12.30
2019-03-22T12:55:56.837Z,11.80
2019-03-22T12:58:26.005Z,11.40
2019-03-22T13:00:55.185Z,11.33
2019-03-22T13:03:24.948Z,14.20
2019-03-22T13:05:54.243Z,12.13
2019-03-22T13:08:23.505Z,11.83
2019-03-22T13:10:53.054Z,14.20
2019-03-22T13:13:22.864Z,12.27
2019-03-22T13:15:52.048Z,10.57
2019-03-22T13:18:21.570Z,13.23
2019-03-22T13:20:51.397Z,16.30
2019-03-22T13:23:20.896Z,10.13
2019-03-22T13:25:50.455Z,14.57
2019-03-22T13:28:20.314Z,11.90
2019-03-22T13:30:49.496Z,11.77
2019-03-22T13:33:19.022Z,12.07
2019-03-22T13:35:48.203Z,17.07
2019-03-22T13:38:17.394Z,15.00
2019-03-22T13:40:46.930Z,13.60
2019-03-22T13:43:16.093Z,13.30
2019-03-22T13:45:45.628Z,12.40
2019-03-22T13:48:15.548Z,12.80
2019-03-22T13:50:44.783Z,15.67
2019-03-22T13:53:14.244Z,11.53
2019-03-22T13:55:43.854Z,13.20
2019-03-22T13:58:13.261Z,12.80
2019-03-22T14:00:42.762Z,13.80
2019-03-22T14:03:11.968Z,13.23
2019-03-22T14:05:41.156Z,14.30
2019-03-22T14:08:10.969Z,12.63
2019-03-22T14:10:40.988Z,11.97
2019-03-22T14:13:10.232Z,15.03
2019-03-22T14:15:39.696Z,14.07
2019-03-22T14:18:09.317Z,16.20
2019-03-22T14:20:38.922Z,17.73
2019-03-22T14:23:08.190Z,16.17
2019-03-22T14:25:37.396Z,16.03
2019-03-22T14:28:06.881Z,13.27
2019-03-22T14:30:36.392Z,16.13
2019-03-22T14:33:13.306Z,16.13
2019-03-22T14:35:37.482Z,15.60
2019-03-22T14:38:06.675Z,17.17
2019-03-22T14:40:36.181Z,18.53
2019-03-22T14:43:05.464Z,17.97
2019-03-22T14:45:35.041Z,17.70
2019-03-22T14:48:04.498Z,17.10
2019-03-22T14:50:34.313Z,19.77
2019-03-22T14:53:03.892Z,18.43
2019-03-22T14:55:33.425Z,16.23
2019-03-22T14:58:02.928Z,21.63
2019-03-22T15:00:32.104Z,17.30
2019-03-22T15:03:01.272Z,16.77
2019-03-22T15:05:30.832Z,22.07
2019-03-22T15:08:00.046Z,20.83
2019-03-22T15:10:29.534Z,21.87
2019-03-22T15:12:59.143Z,21.40
2019-03-22T15:15:43.908Z,19.57
2019-03-22T15:18:34.906Z,19.20
2019-03-22T15:21:23.476Z,18.40
2019-03-22T15:24:14.790Z,20.57
2019-03-22T15:27:02.997Z,17.97
2019-03-22T15:30:06.612Z,16.80
2019-03-22T15:33:01.332Z,18.03
2019-03-22T15:35:55.448Z,19.27
2019-03-22T15:38:47.239Z,23.07
2019-03-22T15:41:16.422Z,22.03
2019-03-22T15:43:45.864Z,24.20
2019-03-22T15:46:15.133Z,26.47
2019-03-22T15:48:44.303Z,22.10
2019-03-22T15:51:13.561Z,29.50
2019-03-22T15:53:43.463Z,25.50
2019-03-22T15:56:12.648Z,25.20
2019-03-22T15:58:44.807Z,28.57
2019-03-22T16:01:14.337Z,28.83
2019-03-22T16:03:44.483Z,36.43
2019-03-22T16:06:14.263Z,29.23
2019-03-22T16:08:44.178Z,31.40
2019-03-22T16:11:13.584Z,34.07
2019-03-22T16:13:43.086Z,34.83
2019-03-22T16:16:12.704Z,31.27
2019-03-22T16:18:41.912Z,33.53
2019-03-22T16:21:11.055Z,33.93
2019-03-22T16:23:40.602Z,32.23
2019-03-22T16:26:09.859Z,32.13
2019-03-22T16:28:39.709Z,33.00
2019-03-22T16:31:08.874Z,31.30
2019-03-22T16:33:38.422Z,32.60
2019-03-22T16:36:07.934Z,32.87
2019-03-22T16:38:37.538Z,36.10
2019-03-22T16:41:07.036Z,32.90
2019-03-22T16:43:36.540Z,37.60
2019-03-22T16:46:05.815Z,36.43
2019-03-22T16:48:35.115Z,31.00
2019-03-22T16:51:04.297Z,36.20
2019-03-22T16:53:33.780Z,34.20
2019-03-22T16:56:03.261Z,32.93
2019-03-22T16:58:32.423Z,34.60
2019-03-22T17:01:01.964Z,36.53
2019-03-22T17:03:31.572Z,35.33
2019-03-22T17:06:00.786Z,37.60
2019-03-22T17:08:30.311Z,34.90
2019-03-22T17:10:59.621Z,36.30
2019-03-22T17:13:28.874Z,31.70
2019-03-22T17:15:58.392Z,33.97
2019-03-22T17:18:28.187Z,32.27
2019-03-22T17:20:58.004Z,35.90
2019-03-22T17:23:27.216Z,34.57
2019-03-22T17:25:56.754Z,37.23
2019-03-22T17:28:26.528Z,33.00
2019-03-22T17:30:55.690Z,35.23
2019-03-22T17:33:25.124Z,34.00
2019-03-22T17:35:54.310Z,34.83
2019-03-22T17:38:23.504Z,29.53
2019-03-22T17:40:52.683Z,35.37
2019-03-22T17:43:22.119Z,34.27
2019-03-22T17:45:51.692Z,29.70
2019-03-22T17:48:20.870Z,27.60
2019-03-22T17:50:50.329Z,30.57
2019-03-22T17:53:21.172Z,29.13
2019-03-22T17:55:50.393Z,28.17
2019-03-22T17:58:20.120Z,27.17
2019-03-22T18:00:49.397Z,30.73
2019-03-22T18:03:18.601Z,30.30
2019-03-22T18:05:48.082Z,29.67
2019-03-22T18:08:17.891Z,26.23
2019-03-22T18:10:47.503Z,32.20
2019-03-22T18:13:16.710Z,29.80
2019-03-22T18:15:46.511Z,31.80
2019-03-22T18:18:16.318Z,29.33
2019-03-22T18:20:45.833Z,28.73
2019-03-22T18:23:15.340Z,28.70
2019-03-22T18:25:44.840Z,26.47
2019-03-22T18:28:14.961Z,26.87
2019-03-22T18:30:44.474Z,26.70
2019-03-22T18:33:13.955Z,32.03
2019-03-22T18:35:43.427Z,30.80
2019-03-22T18:38:12.991Z,28.53
2019-03-22T18:40:42.492Z,28.73
2019-03-22T18:43:12.313Z,29.77
2019-03-22T18:45:41.815Z,31.37
2019-03-22T18:48:11.010Z,28.40
2019-03-22T18:50:40.651Z,26.67
2019-03-22T18:53:10.099Z,30.47
2019-03-22T18:55:39.962Z,26.87
2019-03-22T18:58:09.552Z,29.73
2019-03-22T19:00:39.048Z,28.90
2019-03-22T19:03:08.559Z,31.83
2019-03-22T19:05:38.059Z,33.40
2019-03-22T19:08:07.243Z,29.20
2019-03-22T19:10:36.770Z,30.07
2019-03-22T19:13:07.837Z,28.70
2019-03-22T19:15:37.232Z,30.53
2019-03-22T19:18:06.422Z,32.77
2019-03-22T19:20:36.273Z,32.00
2019-03-22T19:23:05.828Z,30.13
2019-03-22T19:25:35.431Z,34.13
2019-03-22T19:28:04.695Z,27.60
2019-03-22T19:30:33.951Z,29.77
2019-03-22T19:33:04.161Z,33.83
2019-03-22T19:35:33.772Z,31.70
2019-03-22T19:38:02.982Z,30.77
2019-03-22T19:40:32.447Z,32.63
2019-03-22T19:43:01.695Z,30.47
2019-03-22T19:45:31.175Z,34.00
2019-03-22T19:48:00.992Z,33.27
2019-03-22T19:50:30.493Z,34.03
2019-03-22T19:52:59.664Z,35.80
2019-03-22T19:55:28.885Z,35.63
2019-03-22T19:57:58.323Z,32.70
2019-03-22T20:00:27.798Z,36.37
2019-03-22T20:02:57.015Z,36.23
2019-03-22T20:05:31.223Z,35.80
2019-03-22T20:08:00.571Z,38.10
2019-03-22T20:10:29.930Z,43.03
2019-03-22T20:12:59.210Z,39.10
2019-03-22T20:15:28.467Z,38.33
2019-03-22T20:17:57.662Z,38.20
2019-03-22T20:20:27.249Z,41.63
2019-03-22T20:22:56.439Z,42.50
2019-03-22T20:25:26.034Z,40.60
2019-03-22T20:27:55.559Z,45.97
2019-03-22T20:30:24.816Z,47.93
2019-03-22T20:32:55.179Z,48.23
2019-03-22T20:35:24.367Z,47.30
2019-03-22T20:37:53.868Z,49.17
2019-03-22T20:40:23.139Z,46.57
2019-03-22T20:42:52.363Z,49.87
2019-03-22T20:45:24.445Z,49.37
2019-03-22T20:47:53.124Z,46.50
2019-03-22T20:50:22.732Z,50.80
2019-03-22T20:52:52.286Z,45.83
2019-03-22T20:55:21.695Z,51.30
2019-03-22T20:57:50.892Z,53.07
2019-03-22T21:00:20.544Z,55.20
2019-03-22T21:02:50.257Z,52.37
2019-03-22T21:05:26.998Z,55.23
2019-03-22T21:07:50.999Z,55.67
2019-03-22T21:10:20.736Z,60.13
2019-03-22T21:12:50.472Z,58.37
2019-03-22T21:15:24.426Z,58.73
2019-03-22T21:17:50.659Z,60.70
2019-03-22T21:20:20.177Z,64.07
2019-03-22T21:22:49.680Z,61.30
2019-03-22T21:25:19.302Z,67.50
2019-03-22T21:27:48.545Z,68.93
2019-03-22T21:30:17.824Z,64.43
2019-03-22T21:32:47.895Z,73.50
2019-03-22T21:35:22.609Z,67.50
2019-03-22T21:37:48.404Z,70.87
2019-03-22T21:40:17.108Z,74.17
2019-03-22T21:42:46.436Z,75.63
2019-03-22T21:45:16.055Z,71.37
2019-03-22T21:47:45.541Z,76.53
2019-03-22T21:50:15.168Z,78.70
2019-03-22T21:52:45.083Z,79.70
2019-03-22T21:55:14.353Z,83.30
2019-03-22T21:57:43.788Z,89.40
2019-03-22T22:00:13.274Z,89.60
2019-03-22T22:02:43.118Z,82.03
2019-03-22T22:05:12.416Z,90.27
2019-03-22T22:07:41.592Z,86.40
2019-03-22T22:10:11.111Z,89.63
2019-03-22T22:12:40.722Z,94.23
2019-03-22T22:15:11.312Z,92.00
2019-03-22T22:17:41.019Z,96.90
2019-03-22T22:20:10.294Z,97.87
2019-03-22T22:22:39.460Z,96.67
2019-03-22T22:25:09.626Z,102.17
2019-03-22T22:27:39.090Z,95.50
2019-03-22T22:30:09.412Z,97.77
2019-03-22T22:32:38.693Z,97.20
2019-03-22T22:35:08.734Z,102.43
2019-03-22T22:37:38.651Z,107.97
2019-03-22T22:40:08.967Z,113.90
2019-03-22T22:42:38.579Z,123.00
2019-03-22T22:45:08.239Z,134.20
2019-03-22T22:47:37.450Z,128.33
2019-03-22T22:50:07.310Z,139.53
2019-03-22T22:52:36.911Z,142.10
2019-03-22T22:55:06.909Z,164.67
2019-03-22T22:57:36.446Z,145.70
2019-03-22T23:00:06.661Z,165.53
2019-03-22T23:02:35.840Z,153.77
2019-03-22T23:05:05.871Z,149.53
2019-03-22T23:07:35.767Z,167.67
2019-03-22T23:10:06.443Z,165.50
2019-03-22T23:12:35.717Z,156.10
2019-03-22T23:15:05.345Z,164.83
2019-03-22T23:17:35.924Z,171.40
2019-03-22T23:20:06.598Z,182.23
2019-03-22T23:22:36.521Z,194.63
2019-03-22T23:25:06.021Z,180.03
2019-03-22T23:27:35.193Z,179.13
2019-03-22T23:30:05.610Z,174.53
2019-03-22T23:32:35.141Z,187.60
2019-03-22T23:35:05.058Z,178.93
2019-03-22T23:37:34.579Z,172.93
2019-03-22T23:40:04.480Z,183.67
2019-03-22T23:42:34.091Z,174.10
2019-03-22T23:45:03.905Z,194.27
2019-03-22T23:47:33.137Z,205.23
2019-03-22T23:50:02.344Z,190.20
2019-03-22T23:52:31.905Z,199.83
2019-03-22T23:55:01.417Z,206.80
2019-03-22T23:57:30.702Z,191.03
